sensor_id;sensor_type;location;lat;lon;timestamp;temperature;humidity
12704;DHT22;6416;52.182;7.650;2023-07-20T00:01:02;22.50;54.90
12704;DHT22;6416;52.182;7.650;2023-07-20T00:03:28;22.50;55.20
12704;DHT22;6416;52.182;7.650;2023-07-20T00:05:53;22.50;55.30
12704;DHT22;6416;52.182;7.650;2023-07-20T00:08:19;22.40;55.10
12704;DHT22;6416;52.182;7.650;2023-07-20T00:10:44;22.40;55.20
12704;DHT22;6416;52.182;7.650;2023-07-20T00:13:11;22.40;55.30
12704;DHT22;6416;52.182;7.650;2023-07-20T00:15:36;22.40;55.40
12704;DHT22;6416;52.182;7.650;2023-07-20T00:18:02;22.40;55.50
12704;DHT22;6416;52.182;7.650;2023-07-20T00:20:27;22.40;55.40
12704;DHT22;6416;52.182;7.650;2023-07-20T00:22:53;22.30;55.40
12704;DHT22;6416;52.182;7.650;2023-07-20T00:25:18;22.30;55.40
12704;DHT22;6416;52.182;7.650;2023-07-20T00:27:44;22.30;55.40
12704;DHT22;6416;52.182;7.650;2023-07-20T00:30:10;22.30;55.50
12704;DHT22;6416;52.182;7.650;2023-07-20T00:32:35;22.30;55.50
12704;DHT22;6416;52.182;7.650;2023-07-20T00:35:01;22.20;55.50
12704;DHT22;6416;52.182;7.650;2023-07-20T00:37:26;22.20;55.70
12704;DHT22;6416;52.182;7.650;2023-07-20T00:39:53;22.20;55.80
12704;DHT22;6416;52.182;7.650;2023-07-20T00:42:18;22.20;55.90
12704;DHT22;6416;52.182;7.650;2023-07-20T00:44:44;22.20;55.80
12704;DHT22;6416;52.182;7.650;2023-07-20T00:47:10;22.10;55.90
12704;DHT22;6416;52.182;7.650;2023-07-20T00:49:36;22.10;55.90
12704;DHT22;6416;52.182;7.650;2023-07-20T00:52:03;22.10;56.00
12704;DHT22;6416;52.182;7.650;2023-07-20T00:54:32;22.00;56.20
12704;DHT22;6416;52.182;7.650;2023-07-20T00:56:58;22.00;56.10
12704;DHT22;6416;52.182;7.650;2023-07-20T00:59:25;22.00;56.20
12704;DHT22;6416;52.182;7.650;2023-07-20T01:01:51;22.00;56.10
12704;DHT22;6416;52.182;7.650;2023-07-20T01:04:17;21.90;56.20
12704;DHT22;6416;52.182;7.650;2023-07-20T01:06:54;21.90;56.10
12704;DHT22;6416;52.182;7.650;2023-07-20T01:09:39;21.90;56.60
12704;DHT22;6416;52.182;7.650;2023-07-20T01:12:17;21.90;57.10
12704;DHT22;6416;52.182;7.650;2023-07-20T01:14:44;21.80;56.70
12704;DHT22;6416;52.182;7.650;2023-07-20T01:17:10;21.70;56.30
12704;DHT22;6416;52.182;7.650;2023-07-20T01:19:35;21.70;56.40
12704;DHT22;6416;52.182;7.650;2023-07-20T01:24:51;21.60;56.80
12704;DHT22;6416;52.182;7.650;2023-07-20T01:32:42;21.60;57.50
12704;DHT22;6416;52.182;7.650;2023-07-20T01:35:11;21.60;57.40
12704;DHT22;6416;52.182;7.650;2023-07-20T01:37:39;21.60;57.60
12704;DHT22;6416;52.182;7.650;2023-07-20T01:40:06;21.60;57.40
12704;DHT22;6416;52.182;7.650;2023-07-20T01:42:32;21.60;57.50
12704;DHT22;6416;52.182;7.650;2023-07-20T01:44:58;21.60;58.10
12704;DHT22;6416;52.182;7.650;2023-07-20T01:47:23;21.60;57.40
12704;DHT22;6416;52.182;7.650;2023-07-20T01:49:49;21.60;58.20
12704;DHT22;6416;52.182;7.650;2023-07-20T01:52:14;21.60;57.60
12704;DHT22;6416;52.182;7.650;2023-07-20T01:54:40;21.60;57.70
12704;DHT22;6416;52.182;7.650;2023-07-20T01:57:05;21.60;57.80
12704;DHT22;6416;52.182;7.650;2023-07-20T01:59:31;21.60;57.90
12704;DHT22;6416;52.182;7.650;2023-07-20T02:01:56;21.60;58.10
12704;DHT22;6416;52.182;7.650;2023-07-20T02:04:22;21.50;58.20
12704;DHT22;6416;52.182;7.650;2023-07-20T02:06:47;21.50;58.20
12704;DHT22;6416;52.182;7.650;2023-07-20T02:09:13;21.50;58.20
12704;DHT22;6416;52.182;7.650;2023-07-20T02:11:38;21.50;58.50
12704;DHT22;6416;52.182;7.650;2023-07-20T02:14:03;21.50;58.60
12704;DHT22;6416;52.182;7.650;2023-07-20T02:16:29;21.40;58.50
12704;DHT22;6416;52.182;7.650;2023-07-20T02:18:54;21.40;58.60
12704;DHT22;6416;52.182;7.650;2023-07-20T02:21:20;21.40;58.70
12704;DHT22;6416;52.182;7.650;2023-07-20T02:23:45;21.30;58.60
12704;DHT22;6416;52.182;7.650;2023-07-20T02:26:11;21.30;58.70
12704;DHT22;6416;52.182;7.650;2023-07-20T02:28:36;21.30;58.70
12704;DHT22;6416;52.182;7.650;2023-07-20T02:31:02;21.30;58.70
12704;DHT22;6416;52.182;7.650;2023-07-20T02:33:27;21.20;58.60
12704;DHT22;6416;52.182;7.650;2023-07-20T02:35:52;21.20;58.70
12704;DHT22;6416;52.182;7.650;2023-07-20T02:38:18;21.20;58.80
12704;DHT22;6416;52.182;7.650;2023-07-20T02:40:43;21.10;58.80
12704;DHT22;6416;52.182;7.650;2023-07-20T02:43:09;21.10;58.90
12704;DHT22;6416;52.182;7.650;2023-07-20T02:45:35;21.00;58.80
12704;DHT22;6416;52.182;7.650;2023-07-20T02:48:05;21.00;59.00
12704;DHT22;6416;52.182;7.650;2023-07-20T02:50:30;21.00;59.10
12704;DHT22;6416;52.182;7.650;2023-07-20T02:52:55;20.90;59.20
12704;DHT22;6416;52.182;7.650;2023-07-20T02:55:21;20.90;59.20
12704;DHT22;6416;52.182;7.650;2023-07-20T02:57:46;20.80;59.30
12704;DHT22;6416;52.182;7.650;2023-07-20T03:00:12;20.80;59.30
12704;DHT22;6416;52.182;7.650;2023-07-20T03:02:38;20.80;59.40
12704;DHT22;6416;52.182;7.650;2023-07-20T03:05:04;20.80;59.50
12704;DHT22;6416;52.182;7.650;2023-07-20T03:07:29;20.80;59.50
12704;DHT22;6416;52.182;7.650;2023-07-20T03:09:55;20.80;59.70
12704;DHT22;6416;52.182;7.650;2023-07-20T03:12:20;20.70;59.60
12704;DHT22;6416;52.182;7.650;2023-07-20T03:14:46;20.70;59.70
12704;DHT22;6416;52.182;7.650;2023-07-20T03:17:11;20.70;59.80
12704;DHT22;6416;52.182;7.650;2023-07-20T03:19:37;20.60;59.80
12704;DHT22;6416;52.182;7.650;2023-07-20T03:22:03;20.60;60.00
12704;DHT22;6416;52.182;7.650;2023-07-20T03:24:28;20.60;59.90
12704;DHT22;6416;52.182;7.650;2023-07-20T03:26:54;20.60;60.10
12704;DHT22;6416;52.182;7.650;2023-07-20T03:29:19;20.60;60.10
12704;DHT22;6416;52.182;7.650;2023-07-20T03:31:44;20.50;60.10
12704;DHT22;6416;52.182;7.650;2023-07-20T03:34:10;20.50;60.30
12704;DHT22;6416;52.182;7.650;2023-07-20T03:36:35;20.50;60.30
12704;DHT22;6416;52.182;7.650;2023-07-20T03:39:01;20.50;60.30
12704;DHT22;6416;52.182;7.650;2023-07-20T03:41:26;20.50;60.30
12704;DHT22;6416;52.182;7.650;2023-07-20T03:43:52;20.50;60.50
12704;DHT22;6416;52.182;7.650;2023-07-20T03:46:17;20.50;60.60
12704;DHT22;6416;52.182;7.650;2023-07-20T03:48:43;20.40;60.50
12704;DHT22;6416;52.182;7.650;2023-07-20T03:51:08;20.40;60.50
12704;DHT22;6416;52.182;7.650;2023-07-20T03:53:34;20.40;60.60
12704;DHT22;6416;52.182;7.650;2023-07-20T03:55:59;20.40;60.60
12704;DHT22;6416;52.182;7.650;2023-07-20T03:58:25;20.40;60.70
12704;DHT22;6416;52.182;7.650;2023-07-20T04:00:51;20.30;60.80
12704;DHT22;6416;52.182;7.650;2023-07-20T04:03:18;20.30;61.00
12704;DHT22;6416;52.182;7.650;2023-07-20T04:05:44;20.30;61.20
12704;DHT22;6416;52.182;7.650;2023-07-20T04:08:10;20.30;61.20
12704;DHT22;6416;52.182;7.650;2023-07-20T04:10:38;20.30;61.30
12704;DHT22;6416;52.182;7.650;2023-07-20T04:13:04;20.20;61.40
12704;DHT22;6416;52.182;7.650;2023-07-20T04:15:30;20.20;61.40
12704;DHT22;6416;52.182;7.650;2023-07-20T04:17:56;20.20;61.60
12704;DHT22;6416;52.182;7.650;2023-07-20T04:20:22;20.20;61.70
12704;DHT22;6416;52.182;7.650;2023-07-20T04:22:47;20.20;61.70
12704;DHT22;6416;52.182;7.650;2023-07-20T04:25:13;20.20;61.80
12704;DHT22;6416;52.182;7.650;2023-07-20T04:27:38;20.20;61.70
12704;DHT22;6416;52.182;7.650;2023-07-20T04:30:06;20.20;61.70
12704;DHT22;6416;52.182;7.650;2023-07-20T04:32:31;20.10;61.70
12704;DHT22;6416;52.182;7.650;2023-07-20T04:34:57;20.10;61.70
12704;DHT22;6416;52.182;7.650;2023-07-20T04:37:22;20.10;61.90
12704;DHT22;6416;52.182;7.650;2023-07-20T04:39:48;20.10;62.10
12704;DHT22;6416;52.182;7.650;2023-07-20T04:42:13;20.10;62.40
12704;DHT22;6416;52.182;7.650;2023-07-20T04:44:39;20.10;62.50
12704;DHT22;6416;52.182;7.650;2023-07-20T04:47:04;20.20;62.60
12704;DHT22;6416;52.182;7.650;2023-07-20T04:49:30;20.20;62.80
12704;DHT22;6416;52.182;7.650;2023-07-20T04:51:55;20.30;63.00
12704;DHT22;6416;52.182;7.650;2023-07-20T04:54:20;20.30;63.00
12704;DHT22;6416;52.182;7.650;2023-07-20T04:56:46;20.40;63.00
12704;DHT22;6416;52.182;7.650;2023-07-20T04:59:11;20.40;62.90
12704;DHT22;6416;52.182;7.650;2023-07-20T05:01:37;20.50;63.00
12704;DHT22;6416;52.182;7.650;2023-07-20T05:04:03;20.60;63.10
12704;DHT22;6416;52.182;7.650;2023-07-20T05:06:28;20.70;63.30
12704;DHT22;6416;52.182;7.650;2023-07-20T05:08:54;20.90;63.40
12704;DHT22;6416;52.182;7.650;2023-07-20T05:11:19;21.00;63.20
12704;DHT22;6416;52.182;7.650;2023-07-20T05:13:45;21.20;63.20
12704;DHT22;6416;52.182;7.650;2023-07-20T05:16:10;21.30;63.00
12704;DHT22;6416;52.182;7.650;2023-07-20T05:18:35;21.50;63.00
12704;DHT22;6416;52.182;7.650;2023-07-20T05:21:01;21.60;62.80
12704;DHT22;6416;52.182;7.650;2023-07-20T05:23:26;21.80;62.60
12704;DHT22;6416;52.182;7.650;2023-07-20T05:25:58;22.00;62.40
12704;DHT22;6416;52.182;7.650;2023-07-20T05:28:25;22.10;62.40
12704;DHT22;6416;52.182;7.650;2023-07-20T05:30:51;22.30;62.10
12704;DHT22;6416;52.182;7.650;2023-07-20T05:33:18;22.40;61.80
12704;DHT22;6416;52.182;7.650;2023-07-20T05:35:44;22.50;61.20
12704;DHT22;6416;52.182;7.650;2023-07-20T05:38:09;22.60;60.90
12704;DHT22;6416;52.182;7.650;2023-07-20T05:40:40;22.60;60.60
12704;DHT22;6416;52.182;7.650;2023-07-20T05:43:06;22.60;60.30
12704;DHT22;6416;52.182;7.650;2023-07-20T05:45:32;22.60;59.80
12704;DHT22;6416;52.182;7.650;2023-07-20T05:47:57;22.60;60.00
12704;DHT22;6416;52.182;7.650;2023-07-20T05:50:23;22.60;60.30
12704;DHT22;6416;52.182;7.650;2023-07-20T05:52:48;22.70;60.70
12704;DHT22;6416;52.182;7.650;2023-07-20T05:55:14;22.80;60.70
12704;DHT22;6416;52.182;7.650;2023-07-20T05:57:39;22.90;60.30
12704;DHT22;6416;52.182;7.650;2023-07-20T06:00:06;23.00;60.40
12704;DHT22;6416;52.182;7.650;2023-07-20T06:02:31;23.20;60.80
12704;DHT22;6416;52.182;7.650;2023-07-20T06:04:57;23.30;60.60
12704;DHT22;6416;52.182;7.650;2023-07-20T06:07:22;23.60;61.20
12704;DHT22;6416;52.182;7.650;2023-07-20T06:09:47;23.90;61.60
12704;DHT22;6416;52.182;7.650;2023-07-20T06:12:13;24.10;61.60
12704;DHT22;6416;52.182;7.650;2023-07-20T06:14:38;24.50;61.70
12704;DHT22;6416;52.182;7.650;2023-07-20T06:17:04;24.80;61.30
12704;DHT22;6416;52.182;7.650;2023-07-20T06:19:30;25.20;60.80
12704;DHT22;6416;52.182;7.650;2023-07-20T06:21:55;25.50;60.30
12704;DHT22;6416;52.182;7.650;2023-07-20T06:24:20;25.80;59.70
12704;DHT22;6416;52.182;7.650;2023-07-20T06:26:46;26.00;59.20
12704;DHT22;6416;52.182;7.650;2023-07-20T06:29:11;26.30;58.90
12704;DHT22;6416;52.182;7.650;2023-07-20T06:31:37;26.60;58.40
12704;DHT22;6416;52.182;7.650;2023-07-20T06:34:02;26.90;58.10
12704;DHT22;6416;52.182;7.650;2023-07-20T06:36:28;27.10;57.40
12704;DHT22;6416;52.182;7.650;2023-07-20T06:38:54;27.30;57.00
12704;DHT22;6416;52.182;7.650;2023-07-20T06:41:20;27.60;56.40
12704;DHT22;6416;52.182;7.650;2023-07-20T06:43:46;27.80;55.70
12704;DHT22;6416;52.182;7.650;2023-07-20T06:46:11;28.00;55.50
12704;DHT22;6416;52.182;7.650;2023-07-20T06:48:37;28.20;55.10
12704;DHT22;6416;52.182;7.650;2023-07-20T06:51:02;28.30;54.50
12704;DHT22;6416;52.182;7.650;2023-07-20T06:53:29;28.50;53.70
12704;DHT22;6416;52.182;7.650;2023-07-20T06:55:54;28.50;53.10
12704;DHT22;6416;52.182;7.650;2023-07-20T06:58:20;28.60;53.20
12704;DHT22;6416;52.182;7.650;2023-07-20T07:00:45;28.70;53.20
12704;DHT22;6416;52.182;7.650;2023-07-20T07:03:11;28.90;53.40
12704;DHT22;6416;52.182;7.650;2023-07-20T07:05:37;29.10;50.70
12704;DHT22;6416;52.182;7.650;2023-07-20T07:08:04;29.40;52.30
12704;DHT22;6416;52.182;7.650;2023-07-20T07:10:30;29.70;52.00
12704;DHT22;6416;52.182;7.650;2023-07-20T07:12:55;30.00;51.70
12704;DHT22;6416;52.182;7.650;2023-07-20T07:15:21;30.30;51.10
12704;DHT22;6416;52.182;7.650;2023-07-20T07:17:46;30.60;50.30
12704;DHT22;6416;52.182;7.650;2023-07-20T07:20:11;30.70;49.60
12704;DHT22;6416;52.182;7.650;2023-07-20T07:22:37;30.70;49.10
12704;DHT22;6416;52.182;7.650;2023-07-20T07:25:03;30.60;48.40
12704;DHT22;6416;52.182;7.650;2023-07-20T07:27:28;30.70;48.50
12704;DHT22;6416;52.182;7.650;2023-07-20T07:29:54;30.70;48.70
12704;DHT22;6416;52.182;7.650;2023-07-20T07:32:19;30.80;48.70
12704;DHT22;6416;52.182;7.650;2023-07-20T07:34:45;31.10;49.70
12704;DHT22;6416;52.182;7.650;2023-07-20T07:37:10;31.30;48.80
12704;DHT22;6416;52.182;7.650;2023-07-20T07:39:36;31.50;48.10
12704;DHT22;6416;52.182;7.650;2023-07-20T07:42:01;31.50;46.70
12704;DHT22;6416;52.182;7.650;2023-07-20T07:44:27;31.40;45.70
12704;DHT22;6416;52.182;7.650;2023-07-20T07:46:52;31.10;45.10
12704;DHT22;6416;52.182;7.650;2023-07-20T07:49:18;30.80;44.90
12704;DHT22;6416;52.182;7.650;2023-07-20T07:51:43;30.60;45.60
12704;DHT22;6416;52.182;7.650;2023-07-20T07:54:09;30.50;45.70
12704;DHT22;6416;52.182;7.650;2023-07-20T07:56:34;30.60;46.40
12704;DHT22;6416;52.182;7.650;2023-07-20T07:59:00;30.80;47.10
12704;DHT22;6416;52.182;7.650;2023-07-20T08:01:25;31.00;46.80
12704;DHT22;6416;52.182;7.650;2023-07-20T08:03:51;31.20;46.10
12704;DHT22;6416;52.182;7.650;2023-07-20T08:06:16;31.20;45.00
12704;DHT22;6416;52.182;7.650;2023-07-20T08:08:42;31.20;44.20
12704;DHT22;6416;52.182;7.650;2023-07-20T08:11:08;31.10;43.90
12704;DHT22;6416;52.182;7.650;2023-07-20T08:13:34;31.20;44.80
12704;DHT22;6416;52.182;7.650;2023-07-20T08:15:59;31.30;45.10
12704;DHT22;6416;52.182;7.650;2023-07-20T08:18:25;31.60;44.60
12704;DHT22;6416;52.182;7.650;2023-07-20T08:20:50;31.80;44.60
12704;DHT22;6416;52.182;7.650;2023-07-20T08:23:16;32.10;44.30
12704;DHT22;6416;52.182;7.650;2023-07-20T08:25:42;32.40;44.30
12704;DHT22;6416;52.182;7.650;2023-07-20T08:28:08;32.70;44.30
12704;DHT22;6416;52.182;7.650;2023-07-20T08:30:44;33.00;43.80
12704;DHT22;6416;52.182;7.650;2023-07-20T08:33:12;33.40;42.50
12704;DHT22;6416;52.182;7.650;2023-07-20T08:35:38;33.80;43.80
12704;DHT22;6416;52.182;7.650;2023-07-20T08:38:03;34.20;42.60
12704;DHT22;6416;52.182;7.650;2023-07-20T08:40:29;34.60;42.40
12704;DHT22;6416;52.182;7.650;2023-07-20T08:42:54;34.90;41.60
12704;DHT22;6416;52.182;7.650;2023-07-20T08:45:22;35.30;41.30
12704;DHT22;6416;52.182;7.650;2023-07-20T08:47:50;35.60;40.70
12704;DHT22;6416;52.182;7.650;2023-07-20T08:50:16;35.90;39.60
12704;DHT22;6416;52.182;7.650;2023-07-20T08:52:41;36.20;39.40
12704;DHT22;6416;52.182;7.650;2023-07-20T08:55:07;36.40;39.00
12704;DHT22;6416;52.182;7.650;2023-07-20T08:57:33;36.70;38.70
12704;DHT22;6416;52.182;7.650;2023-07-20T09:00:02;36.70;37.50
12704;DHT22;6416;52.182;7.650;2023-07-20T09:02:28;36.70;36.20
12704;DHT22;6416;52.182;7.650;2023-07-20T09:04:54;36.50;35.70
12704;DHT22;6416;52.182;7.650;2023-07-20T09:07:20;36.20;35.30
12704;DHT22;6416;52.182;7.650;2023-07-20T09:09:45;36.10;35.90
12704;DHT22;6416;52.182;7.650;2023-07-20T09:12:17;36.10;36.40
12704;DHT22;6416;52.182;7.650;2023-07-20T09:14:43;36.10;36.00
12704;DHT22;6416;52.182;7.650;2023-07-20T09:17:13;36.40;36.90
12704;DHT22;6416;52.182;7.650;2023-07-20T09:19:38;36.70;35.90
12704;DHT22;6416;52.182;7.650;2023-07-20T09:22:05;37.00;36.30
12704;DHT22;6416;52.182;7.650;2023-07-20T09:24:32;37.00;32.40
12704;DHT22;6416;52.182;7.650;2023-07-20T09:26:57;37.20;33.90
12704;DHT22;6416;52.182;7.650;2023-07-20T09:29:26;37.30;34.00
12704;DHT22;6416;52.182;7.650;2023-07-20T09:32:00;37.50;34.10
12704;DHT22;6416;52.182;7.650;2023-07-20T09:34:25;37.70;33.50
12704;DHT22;6416;52.182;7.650;2023-07-20T09:36:51;38.00;34.00
12704;DHT22;6416;52.182;7.650;2023-07-20T09:39:16;38.30;34.00
12704;DHT22;6416;52.182;7.650;2023-07-20T09:41:42;38.50;33.20
12704;DHT22;6416;52.182;7.650;2023-07-20T09:44:08;38.70;32.70
12704;DHT22;6416;52.182;7.650;2023-07-20T09:46:47;38.80;32.50
12704;DHT22;6416;52.182;7.650;2023-07-20T09:49:14;38.90;30.90
12704;DHT22;6416;52.182;7.650;2023-07-20T09:51:44;38.80;30.90
12704;DHT22;6416;52.182;7.650;2023-07-20T09:54:10;38.60;30.60
12704;DHT22;6416;52.182;7.650;2023-07-20T09:56:38;38.30;30.20
12704;DHT22;6416;52.182;7.650;2023-07-20T09:59:04;38.00;30.20
12704;DHT22;6416;52.182;7.650;2023-07-20T10:01:30;37.80;30.50
12704;DHT22;6416;52.182;7.650;2023-07-20T10:03:58;37.70;30.70
12704;DHT22;6416;52.182;7.650;2023-07-20T10:06:24;37.60;30.40
12704;DHT22;6416;52.182;7.650;2023-07-20T10:08:57;37.50;30.30
12704;DHT22;6416;52.182;7.650;2023-07-20T10:11:27;37.30;29.90
12704;DHT22;6416;52.182;7.650;2023-07-20T10:13:57;37.30;30.30
12704;DHT22;6416;52.182;7.650;2023-07-20T10:16:29;37.40;31.20
12704;DHT22;6416;52.182;7.650;2023-07-20T10:21:29;37.80;30.90
12704;DHT22;6416;52.182;7.650;2023-07-20T10:23:59;38.00;30.90
12704;DHT22;6416;52.182;7.650;2023-07-20T10:26:26;38.10;29.70
12704;DHT22;6416;52.182;7.650;2023-07-20T10:28:52;38.00;29.80
12704;DHT22;6416;52.182;7.650;2023-07-20T10:31:18;37.90;29.30
12704;DHT22;6416;52.182;7.650;2023-07-20T10:33:44;37.60;28.90
12704;DHT22;6416;52.182;7.650;2023-07-20T10:36:11;37.30;28.90
12704;DHT22;6416;52.182;7.650;2023-07-20T10:41:17;37.10;29.80
12704;DHT22;6416;52.182;7.650;2023-07-20T10:43:44;37.30;30.00
12704;DHT22;6416;52.182;7.650;2023-07-20T10:46:14;37.50;30.60
12704;DHT22;6416;52.182;7.650;2023-07-20T10:49:05;37.90;30.20
12704;DHT22;6416;52.182;7.650;2023-07-20T10:51:45;38.30;30.30
12704;DHT22;6416;52.182;7.650;2023-07-20T10:56:43;39.10;28.70
12704;DHT22;6416;52.182;7.650;2023-07-20T10:59:20;39.30;28.40
12704;DHT22;6416;52.182;7.650;2023-07-20T11:02:07;39.20;27.50
12704;DHT22;6416;52.182;7.650;2023-07-20T11:04:43;39.20;28.00
12704;DHT22;6416;52.182;7.650;2023-07-20T11:07:09;39.20;27.40
12704;DHT22;6416;52.182;7.650;2023-07-20T11:09:36;39.20;28.30
12704;DHT22;6416;52.182;7.650;2023-07-20T11:12:12;39.20;27.90
12704;DHT22;6416;52.182;7.650;2023-07-20T11:14:53;39.20;27.10
12704;DHT22;6416;52.182;7.650;2023-07-20T11:17:19;39.20;27.40
12704;DHT22;6416;52.182;7.650;2023-07-20T11:19:48;39.30;27.50
12704;DHT22;6416;52.182;7.650;2023-07-20T11:22:16;39.40;27.20
12704;DHT22;6416;52.182;7.650;2023-07-20T11:24:42;39.50;27.60
12704;DHT22;6416;52.182;7.650;2023-07-20T11:27:08;39.70;27.80
12704;DHT22;6416;52.182;7.650;2023-07-20T11:29:34;39.90;27.90
12704;DHT22;6416;52.182;7.650;2023-07-20T11:32:01;40.00;27.70
12704;DHT22;6416;52.182;7.650;2023-07-20T11:34:30;40.20;27.50
12704;DHT22;6416;52.182;7.650;2023-07-20T11:36:55;40.30;27.60
12704;DHT22;6416;52.182;7.650;2023-07-20T11:39:22;40.50;27.20
12704;DHT22;6416;52.182;7.650;2023-07-20T11:41:49;40.60;27.20
12704;DHT22;6416;52.182;7.650;2023-07-20T11:44:19;40.80;27.00
12704;DHT22;6416;52.182;7.650;2023-07-20T11:46:45;41.00;27.20
12704;DHT22;6416;52.182;7.650;2023-07-20T11:49:11;41.20;26.80
12704;DHT22;6416;52.182;7.650;2023-07-20T11:51:38;41.30;26.20
12704;DHT22;6416;52.182;7.650;2023-07-20T11:54:06;41.30;26.10
12704;DHT22;6416;52.182;7.650;2023-07-20T11:56:32;41.40;26.00
12704;DHT22;6416;52.182;7.650;2023-07-20T11:58:59;41.40;26.10
12704;DHT22;6416;52.182;7.650;2023-07-20T12:01:25;41.50;25.70
12704;DHT22;6416;52.182;7.650;2023-07-20T12:03:51;41.40;25.10
12704;DHT22;6416;52.182;7.650;2023-07-20T12:06:16;41.40;25.30
12704;DHT22;6416;52.182;7.650;2023-07-20T12:08:42;41.40;25.20
12704;DHT22;6416;52.182;7.650;2023-07-20T12:11:08;41.40;24.70
12704;DHT22;6416;52.182;7.650;2023-07-20T12:13:38;41.20;24.40
12704;DHT22;6416;52.182;7.650;2023-07-20T12:16:09;41.00;24.00
12704;DHT22;6416;52.182;7.650;2023-07-20T12:18:35;40.80;24.20
12704;DHT22;6416;52.182;7.650;2023-07-20T12:21:01;40.60;24.20
12704;DHT22;6416;52.182;7.650;2023-07-20T12:23:26;40.50;25.00
12704;DHT22;6416;52.182;7.650;2023-07-20T12:25:52;40.50;25.40
12704;DHT22;6416;52.182;7.650;2023-07-20T12:28:19;40.60;25.80
12704;DHT22;6416;52.182;7.650;2023-07-20T12:30:46;40.60;25.40
12704;DHT22;6416;52.182;7.650;2023-07-20T12:33:12;40.70;25.50
12704;DHT22;6416;52.182;7.650;2023-07-20T12:35:38;40.90;25.50
12704;DHT22;6416;52.182;7.650;2023-07-20T12:38:03;41.00;25.30
12704;DHT22;6416;52.182;7.650;2023-07-20T12:40:29;41.10;25.30
12704;DHT22;6416;52.182;7.650;2023-07-20T12:42:55;40.90;25.00
12704;DHT22;6416;52.182;7.650;2023-07-20T12:45:20;40.60;24.60
12704;DHT22;6416;52.182;7.650;2023-07-20T12:47:46;40.30;24.70
12704;DHT22;6416;52.182;7.650;2023-07-20T12:50:11;39.80;24.70
12704;DHT22;6416;52.182;7.650;2023-07-20T12:52:38;39.40;25.00
12704;DHT22;6416;52.182;7.650;2023-07-20T12:55:05;39.00;25.40
12704;DHT22;6416;52.182;7.650;2023-07-20T12:57:31;38.60;25.80
12704;DHT22;6416;52.182;7.650;2023-07-20T12:59:56;38.40;26.20
12704;DHT22;6416;52.182;7.650;2023-07-20T13:02:22;38.20;26.50
12704;DHT22;6416;52.182;7.650;2023-07-20T13:04:47;38.00;26.50
12704;DHT22;6416;52.182;7.650;2023-07-20T13:07:13;37.80;26.50
12704;DHT22;6416;52.182;7.650;2023-07-20T13:09:38;37.70;26.70
12704;DHT22;6416;52.182;7.650;2023-07-20T13:12:04;37.50;26.60
12704;DHT22;6416;52.182;7.650;2023-07-20T13:14:30;37.40;26.60
12704;DHT22;6416;52.182;7.650;2023-07-20T13:16:55;37.20;26.50
12704;DHT22;6416;52.182;7.650;2023-07-20T13:19:21;37.00;26.50
12704;DHT22;6416;52.182;7.650;2023-07-20T13:21:46;36.80;26.30
12704;DHT22;6416;52.182;7.650;2023-07-20T13:24:12;36.50;26.50
12704;DHT22;6416;52.182;7.650;2023-07-20T13:26:37;36.20;26.10
12704;DHT22;6416;52.182;7.650;2023-07-20T13:29:03;36.00;26.30
12704;DHT22;6416;52.182;7.650;2023-07-20T13:31:29;35.70;26.50
12704;DHT22;6416;52.182;7.650;2023-07-20T13:33:54;35.40;26.60
12704;DHT22;6416;52.182;7.650;2023-07-20T13:36:20;35.20;26.80
12704;DHT22;6416;52.182;7.650;2023-07-20T13:38:45;35.00;27.00
12704;DHT22;6416;52.182;7.650;2023-07-20T13:41:11;34.20;28.20
12704;DHT22;6416;52.182;7.650;2023-07-20T13:43:36;34.10;28.10
12704;DHT22;6416;52.182;7.650;2023-07-20T13:46:02;34.00;28.10
12704;DHT22;6416;52.182;7.650;2023-07-20T13:48:27;33.90;28.00
12704;DHT22;6416;52.182;7.650;2023-07-20T13:50:53;33.80;28.10
12704;DHT22;6416;52.182;7.650;2023-07-20T13:53:18;33.60;28.30
12704;DHT22;6416;52.182;7.650;2023-07-20T13:55:43;33.40;28.50
12704;DHT22;6416;52.182;7.650;2023-07-20T13:58:09;33.30;28.80
12704;DHT22;6416;52.182;7.650;2023-07-20T14:00:34;33.10;28.70
12704;DHT22;6416;52.182;7.650;2023-07-20T14:03:00;32.90;29.00
12704;DHT22;6416;52.182;7.650;2023-07-20T14:05:25;32.80;29.00
12704;DHT22;6416;52.182;7.650;2023-07-20T14:07:51;32.70;29.00
12704;DHT22;6416;52.182;7.650;2023-07-20T14:10:16;32.60;29.20
12704;DHT22;6416;52.182;7.650;2023-07-20T14:12:42;32.40;29.10
12704;DHT22;6416;52.182;7.650;2023-07-20T14:15:09;32.30;29.30
12704;DHT22;6416;52.182;7.650;2023-07-20T14:17:34;32.20;30.00
12704;DHT22;6416;52.182;7.650;2023-07-20T14:20:00;32.20;29.60
12704;DHT22;6416;52.182;7.650;2023-07-20T14:22:26;32.00;29.50
12704;DHT22;6416;52.182;7.650;2023-07-20T14:24:51;32.00;29.70
12704;DHT22;6416;52.182;7.650;2023-07-20T14:27:16;31.80;29.70
12704;DHT22;6416;52.182;7.650;2023-07-20T14:29:42;31.80;29.80
12704;DHT22;6416;52.182;7.650;2023-07-20T14:32:07;31.70;29.90
12704;DHT22;6416;52.182;7.650;2023-07-20T14:34:33;31.60;30.00
12704;DHT22;6416;52.182;7.650;2023-07-20T14:37:02;31.40;29.90
12704;DHT22;6416;52.182;7.650;2023-07-20T14:39:27;31.50;30.30
12704;DHT22;6416;52.182;7.650;2023-07-20T14:41:52;31.50;30.40
12704;DHT22;6416;52.182;7.650;2023-07-20T14:44:18;31.40;30.40
12704;DHT22;6416;52.182;7.650;2023-07-20T14:46:44;31.40;30.50
12704;DHT22;6416;52.182;7.650;2023-07-20T14:49:09;31.40;30.30
12704;DHT22;6416;52.182;7.650;2023-07-20T14:51:35;31.30;30.60
12704;DHT22;6416;52.182;7.650;2023-07-20T14:54:00;31.30;30.80
12704;DHT22;6416;52.182;7.650;2023-07-20T14:56:26;31.30;30.50
12704;DHT22;6416;52.182;7.650;2023-07-20T14:58:51;31.30;30.50
12704;DHT22;6416;52.182;7.650;2023-07-20T15:01:16;31.30;30.20
12704;DHT22;6416;52.182;7.650;2023-07-20T15:03:42;31.30;30.00
12704;DHT22;6416;52.182;7.650;2023-07-20T15:06:10;31.20;30.20
12704;DHT22;6416;52.182;7.650;2023-07-20T15:08:36;31.20;30.70
12704;DHT22;6416;52.182;7.650;2023-07-20T15:11:01;31.10;30.60
12704;DHT22;6416;52.182;7.650;2023-07-20T15:13:27;31.10;30.50
12704;DHT22;6416;52.182;7.650;2023-07-20T15:15:52;31.00;30.50
12704;DHT22;6416;52.182;7.650;2023-07-20T15:18:18;31.00;30.40
12704;DHT22;6416;52.182;7.650;2023-07-20T15:20:43;31.00;30.40
12704;DHT22;6416;52.182;7.650;2023-07-20T15:23:09;30.90;30.40
12704;DHT22;6416;52.182;7.650;2023-07-20T15:25:34;30.90;30.50
12704;DHT22;6416;52.182;7.650;2023-07-20T15:28:00;30.80;30.70
12704;DHT22;6416;52.182;7.650;2023-07-20T15:30:27;30.80;30.80
12704;DHT22;6416;52.182;7.650;2023-07-20T15:32:53;30.70;30.80
12704;DHT22;6416;52.182;7.650;2023-07-20T15:35:18;30.70;30.80
12704;DHT22;6416;52.182;7.650;2023-07-20T15:37:43;30.70;31.00
12704;DHT22;6416;52.182;7.650;2023-07-20T15:40:09;30.60;31.00
12704;DHT22;6416;52.182;7.650;2023-07-20T15:42:35;30.60;31.20
12704;DHT22;6416;52.182;7.650;2023-07-20T15:45:00;30.50;31.20
12704;DHT22;6416;52.182;7.650;2023-07-20T15:47:26;30.50;31.30
12704;DHT22;6416;52.182;7.650;2023-07-20T15:49:51;30.50;31.40
12704;DHT22;6416;52.182;7.650;2023-07-20T15:52:17;30.50;31.50
12704;DHT22;6416;52.182;7.650;2023-07-20T15:54:42;30.40;31.50